This is the latest recevied weather packets stored in our database for station/object Kirchdorf. If no packets are shown the sender has not sent any weather packets the latest 10 day(s).
| Time | Temp. | Humidity | Pressure | Rain* | Wind** | Luminosity | Snow |
|---|---|---|---|---|---|---|---|
| 1777233730 | 10.56° C | 69% | 1022.7 hPa | 0 mm | - | - | - |
| 1777231930 | 11.11° C | 66% | 1022.4 hPa | 0 mm | - | - | - |
| 1777230130 | 12.22° C | 62% | 1022.2 hPa | 0 mm | - | - | - |
| 1777228331 | 15° C | 51% | 1021.8 hPa | 0 mm | - | - | - |
| 1777226530 | 16.67° C | 44% | 1021.6 hPa | 0 mm | - | - | - |
| 1777224730 | 17.22° C | 42% | 1021.4 hPa | 0 mm | - | - | - |
| 1777222930 | 17.78° C | 41% | 1021.4 hPa | 0 mm | - | - | - |
| 1777221130 | 18.33° C | 40% | 1021.6 hPa | 0 mm | - | - | - |
| 1777219331 | 18.33° C | 41% | 1021.7 hPa | 0 mm | - | - | - |
| 1777217530 | 18.33° C | 40% | 1021.6 hPa | 0 mm | - | - | - |
| 1777215731 | 17.22° C | 42% | 1021.6 hPa | 0 mm | - | - | - |
| 1777213930 | 18.33° C | 44% | 1021.6 hPa | 0 mm | - | - | - |
| 1777212130 | 17.78° C | 46% | 1021.7 hPa | 0 mm | - | - | - |
| 1777210330 | 17.22° C | 38% | 1022 hPa | 0 mm | - | - | - |
| 1777208531 | 18.89° C | 31% | 1022.1 hPa | 0 mm | - | - | - |
| 1777206730 | 18.33° C | 25% | 1022.3 hPa | 0 mm | - | - | - |
| 1777204931 | 18.33° C | 28% | 1022.3 hPa | 0 mm | - | - | - |
| 1777203131 | 17.78° C | 27% | 1022.5 hPa | 0 mm | - | - | - |
| 1777201330 | 17.22° C | 34% | 1022.7 hPa | 0 mm | - | - | - |
| 1777199532 | 16.67° C | 33% | 1022.8 hPa | 0 mm | - | - | - |
| 1777197730 | 16.11° C | 42% | 1023.1 hPa | 0 mm | - | - | - |
| 1777195933 | 15.56° C | 39% | 1023.2 hPa | 0 mm | - | - | - |
| 1777194132 | 15° C | 47% | 1023.3 hPa | 0 mm | - | - | - |
| 1777192331 | 13.89° C | 51% | 1023.2 hPa | 0 mm | - | - | - |
| 1777190531 | 13.33° C | 58% | 1023.4 hPa | 0 mm | - | - | - |
* Rain since midnight (hover to see other rain measurements)
** Current wind speed in m/s (hover to see current wind gust speed)